sensor_id;sensor_type;location;lat;lon;timestamp;pressure;altitude;pressure_sealevel;temperature;humidity
31082;BME280;17737;52.586;13.284;2023-07-31T00:00:01;100657.63;;;16.98;100.00
31082;BME280;17737;52.586;13.284;2023-07-31T00:02:29;100647.16;;;16.88;100.00
31082;BME280;17737;52.586;13.284;2023-07-31T00:04:57;100654.72;;;16.66;100.00
31082;BME280;17737;52.586;13.284;2023-07-31T00:07:25;100661.22;;;16.59;100.00
31082;BME280;17737;52.586;13.284;2023-07-31T00:09:53;100656.63;;;16.53;100.00
31082;BME280;17737;52.586;13.284;2023-07-31T00:12:23;100658.28;;;16.47;100.00
31082;BME280;17737;52.586;13.284;2023-07-31T00:14:52;100655.09;;;16.44;100.00
31082;BME280;17737;52.586;13.284;2023-07-31T00:17:20;100655.34;;;16.49;100.00
31082;BME280;17737;52.586;13.284;2023-07-31T00:19:48;100652.19;;;16.58;100.00
31082;BME280;17737;52.586;13.284;2023-07-31T00:22:17;100650.31;;;16.59;100.00
31082;BME280;17737;52.586;13.284;2023-07-31T00:24:45;100645.31;;;16.56;100.00
31082;BME280;17737;52.586;13.284;2023-07-31T00:27:13;100645.72;;;16.66;100.00
31082;BME280;17737;52.586;13.284;2023-07-31T00:29:41;100636.09;;;16.57;100.00
31082;BME280;17737;52.586;13.284;2023-07-31T00:32:10;100636.72;;;16.59;100.00
31082;BME280;17737;52.586;13.284;2023-07-31T00:34:38;100638.59;;;16.52;100.00
31082;BME280;17737;52.586;13.284;2023-07-31T00:37:06;100639.66;;;16.64;100.00
31082;BME280;17737;52.586;13.284;2023-07-31T00:39:35;100636.31;;;16.55;100.00
31082;BME280;17737;52.586;13.284;2023-07-31T00:42:03;100636.72;;;16.39;100.00
31082;BME280;17737;52.586;13.284;2023-07-31T00:44:32;100634.81;;;16.40;100.00
31082;BME280;17737;52.586;13.284;2023-07-31T00:47:00;100636.88;;;16.38;100.00
31082;BME280;17737;52.586;13.284;2023-07-31T00:49:30;100636.50;;;16.60;100.00
31082;BME280;17737;52.586;13.284;2023-07-31T00:51:59;100626.88;;;16.71;100.00
31082;BME280;17737;52.586;13.284;2023-07-31T00:54:27;100620.19;;;16.54;100.00
31082;BME280;17737;52.586;13.284;2023-07-31T00:56:55;100621.00;;;16.81;100.00
31082;BME280;17737;52.586;13.284;2023-07-31T00:59:24;100631.50;;;16.64;100.00
31082;BME280;17737;52.586;13.284;2023-07-31T01:01:52;100623.72;;;16.74;100.00
31082;BME280;17737;52.586;13.284;2023-07-31T01:04:20;100626.66;;;16.92;100.00
31082;BME280;17737;52.586;13.284;2023-07-31T01:06:56;100627.44;;;17.12;100.00
31082;BME280;17737;52.586;13.284;2023-07-31T01:09:37;100616.31;;;17.20;100.00
31082;BME280;17737;52.586;13.284;2023-07-31T01:12:14;100616.31;;;17.20;100.00
31082;BME280;17737;52.586;13.284;2023-07-31T01:14:51;100615.47;;;17.20;100.00
31082;BME280;17737;52.586;13.284;2023-07-31T01:17:29;100611.69;;;17.27;100.00
31082;BME280;17737;52.586;13.284;2023-07-31T01:20:00;100609.38;;;17.31;100.00
31082;BME280;17737;52.586;13.284;2023-07-31T01:22:43;100603.94;;;17.31;100.00
31082;BME280;17737;52.586;13.284;2023-07-31T01:25:50;100616.66;;;17.43;100.00
31082;BME280;17737;52.586;13.284;2023-07-31T01:28:33;100625.25;;;17.47;100.00
31082;BME280;17737;52.586;13.284;2023-07-31T01:31:16;100618.75;;;17.41;100.00
31082;BME280;17737;52.586;13.284;2023-07-31T01:33:48;100622.56;;;17.27;100.00
31082;BME280;17737;52.586;13.284;2023-07-31T01:36:18;100626.19;;;17.21;100.00
31082;BME280;17737;52.586;13.284;2023-07-31T01:38:46;100619.47;;;17.17;100.00
31082;BME280;17737;52.586;13.284;2023-07-31T01:41:17;100617.63;;;16.98;100.00
31082;BME280;17737;52.586;13.284;2023-07-31T01:43:46;100618.03;;;17.08;100.00
31082;BME280;17737;52.586;13.284;2023-07-31T01:46:14;100617.19;;;17.08;100.00
31082;BME280;17737;52.586;13.284;2023-07-31T01:48:42;100605.66;;;17.12;100.00
31082;BME280;17737;52.586;13.284;2023-07-31T01:51:10;100603.78;;;17.13;100.00
31082;BME280;17737;52.586;13.284;2023-07-31T01:53:39;100599.25;;;16.87;100.00
31082;BME280;17737;52.586;13.284;2023-07-31T01:56:07;100601.75;;;16.89;100.00
31082;BME280;17737;52.586;13.284;2023-07-31T01:58:36;100607.19;;;16.89;100.00
31082;BME280;17737;52.586;13.284;2023-07-31T02:01:04;100605.50;;;16.88;100.00
31082;BME280;17737;52.586;13.284;2023-07-31T02:03:32;100599.63;;;16.97;100.00
31082;BME280;17737;52.586;13.284;2023-07-31T02:06:01;100594.63;;;16.88;100.00
31082;BME280;17737;52.586;13.284;2023-07-31T02:08:29;100599.25;;;16.87;100.00
31082;BME280;17737;52.586;13.284;2023-07-31T02:10:57;100591.25;;;16.86;100.00
31082;BME280;17737;52.586;13.284;2023-07-31T02:13:25;100589.16;;;16.94;100.00
31082;BME280;17737;52.586;13.284;2023-07-31T02:15:54;100587.53;;;16.80;100.00
31082;BME280;17737;52.586;13.284;2023-07-31T02:18:22;100588.75;;;16.84;100.00
31082;BME280;17737;52.586;13.284;2023-07-31T02:20:50;100578.09;;;16.76;100.00
31082;BME280;17737;52.586;13.284;2023-07-31T02:23:19;100576.25;;;16.70;100.00
31082;BME280;17737;52.586;13.284;2023-07-31T02:25:47;100581.91;;;16.75;100.00
31082;BME280;17737;52.586;13.284;2023-07-31T02:28:15;100577.91;;;16.71;100.00
31082;BME280;17737;52.586;13.284;2023-07-31T02:30:44;100580.00;;;16.69;100.00
31082;BME280;17737;52.586;13.284;2023-07-31T02:33:14;100583.78;;;16.74;100.00
31082;BME280;17737;52.586;13.284;2023-07-31T02:35:43;100580.41;;;16.79;100.00
31082;BME280;17737;52.586;13.284;2023-07-31T02:38:11;100576.66;;;16.73;100.00
31082;BME280;17737;52.586;13.284;2023-07-31T02:40:39;100572.66;;;16.76;100.00
31082;BME280;17737;52.586;13.284;2023-07-31T02:43:07;100576.88;;;16.79;100.00
31082;BME280;17737;52.586;13.284;2023-07-31T02:45:35;100575.81;;;16.80;100.00
31082;BME280;17737;52.586;13.284;2023-07-31T02:48:04;100572.41;;;16.91;100.00
31082;BME280;17737;52.586;13.284;2023-07-31T02:50:34;100571.59;;;16.90;100.00
31082;BME280;17737;52.586;13.284;2023-07-31T02:53:02;100565.72;;;16.93;100.00
31082;BME280;17737;52.586;13.284;2023-07-31T02:55:30;100559.41;;;16.99;100.00
31082;BME280;17737;52.586;13.284;2023-07-31T02:57:58;100561.97;;;16.81;100.00
31082;BME280;17737;52.586;13.284;2023-07-31T03:00:26;100567.22;;;16.83;100.00
31082;BME280;17737;52.586;13.284;2023-07-31T03:02:54;100560.72;;;16.77;100.00
31082;BME280;17737;52.586;13.284;2023-07-31T03:05:22;100556.53;;;16.81;100.00
31082;BME280;17737;52.586;13.284;2023-07-31T03:07:51;100565.72;;;16.93;100.00
31082;BME280;17737;52.586;13.284;2023-07-31T03:10:20;100556.31;;;16.96;100.00
31082;BME280;17737;52.586;13.284;2023-07-31T03:12:47;100562.59;;;16.90;100.00
31082;BME280;17737;52.586;13.284;2023-07-31T03:15:15;100560.91;;;16.95;100.00
31082;BME280;17737;52.586;13.284;2023-07-31T03:17:43;100558.41;;;16.94;100.00
31082;BME280;17737;52.586;13.284;2023-07-31T03:20:12;100555.66;;;17.00;100.00
31082;BME280;17737;52.586;13.284;2023-07-31T03:22:41;100553.19;;;16.92;100.00
31082;BME280;17737;52.586;13.284;2023-07-31T03:25:11;100547.91;;;17.04;100.00
31082;BME280;17737;52.586;13.284;2023-07-31T03:27:39;100539.53;;;16.99;100.00
31082;BME280;17737;52.586;13.284;2023-07-31T03:30:07;100539.28;;;17.07;100.00
31082;BME280;17737;52.586;13.284;2023-07-31T03:32:36;100537.81;;;17.11;100.00
31082;BME280;17737;52.586;13.284;2023-07-31T03:35:05;100534.88;;;17.12;100.00
31082;BME280;17737;52.586;13.284;2023-07-31T03:37:33;100534.25;;;17.10;100.00
31082;BME280;17737;52.586;13.284;2023-07-31T03:40:01;100534.69;;;17.07;100.00
31082;BME280;17737;52.586;13.284;2023-07-31T03:42:32;100533.84;;;17.07;100.00
31082;BME280;17737;52.586;13.284;2023-07-31T03:45:00;100520.44;;;17.12;100.00
31082;BME280;17737;52.586;13.284;2023-07-31T03:47:28;100520.44;;;17.12;100.00
31082;BME280;17737;52.586;13.284;2023-07-31T03:49:56;100517.47;;;17.13;100.00
31082;BME280;17737;52.586;13.284;2023-07-31T03:52:24;100512.69;;;17.09;100.00
31082;BME280;17737;52.586;13.284;2023-07-31T03:54:52;100510.78;;;17.16;100.00
31082;BME280;17737;52.586;13.284;2023-07-31T03:57:20;100516.44;;;17.14;100.00
31082;BME280;17737;52.586;13.284;2023-07-31T03:59:50;100517.69;;;17.12;100.00
31082;BME280;17737;52.586;13.284;2023-07-31T04:02:18;100517.47;;;17.13;100.00
31082;BME280;17737;52.586;13.284;2023-07-31T04:04:46;100508.66;;;17.24;100.00
31082;BME280;17737;52.586;13.284;2023-07-31T04:07:14;100505.25;;;17.29;100.00
31082;BME280;17737;52.586;13.284;2023-07-31T04:09:42;100499.16;;;17.33;100.00
31082;BME280;17737;52.586;13.284;2023-07-31T04:12:10;100498.06;;;17.41;100.00
31082;BME280;17737;52.586;13.284;2023-07-31T04:14:38;100500.78;;;17.47;100.00
31082;BME280;17737;52.586;13.284;2023-07-31T04:17:07;100493.69;;;17.40;100.00
31082;BME280;17737;52.586;13.284;2023-07-31T04:19:38;100489.84;;;17.54;100.00
31082;BME280;17737;52.586;13.284;2023-07-31T04:22:06;100489.22;;;17.58;100.00
31082;BME280;17737;52.586;13.284;2023-07-31T04:24:34;100488.22;;;17.46;100.00
31082;BME280;17737;52.586;13.284;2023-07-31T04:27:02;100484.44;;;17.47;100.00
31082;BME280;17737;52.586;13.284;2023-07-31T04:29:30;100477.75;;;17.43;100.00
31082;BME280;17737;52.586;13.284;2023-07-31T04:31:58;100483.41;;;17.48;100.00
31082;BME280;17737;52.586;13.284;2023-07-31T04:34:28;100485.91;;;17.50;100.00
31082;BME280;17737;52.586;13.284;2023-07-31T04:36:56;100476.84;;;17.56;100.00
31082;BME280;17737;52.586;13.284;2023-07-31T04:39:24;100479.06;;;17.72;100.00
31082;BME280;17737;52.586;13.284;2023-07-31T04:41:51;100476.97;;;17.67;100.00
31082;BME280;17737;52.586;13.284;2023-07-31T04:44:19;100476.75;;;17.69;100.00
31082;BME280;17737;52.586;13.284;2023-07-31T04:46:47;100472.88;;;17.58;100.00
31082;BME280;17737;52.586;13.284;2023-07-31T04:49:15;100476.16;;;17.67;100.00
31082;BME280;17737;52.586;13.284;2023-07-31T04:51:45;100473.81;;;17.70;100.00
31082;BME280;17737;52.586;13.284;2023-07-31T04:54:13;100481.22;;;17.63;100.00
31082;BME280;17737;52.586;13.284;2023-07-31T04:56:41;100478.31;;;17.58;100.00
31082;BME280;17737;52.586;13.284;2023-07-31T04:59:09;100485.59;;;17.64;100.00
31082;BME280;17737;52.586;13.284;2023-07-31T05:01:37;100488.78;;;18.11;100.00
31082;BME280;17737;52.586;13.284;2023-07-31T05:04:05;100482.72;;;17.84;100.00
31082;BME280;17737;52.586;13.284;2023-07-31T05:06:33;100486.38;;;17.71;100.00
31082;BME280;17737;52.586;13.284;2023-07-31T05:09:02;100487.88;;;17.67;100.00
31082;BME280;17737;52.586;13.284;2023-07-31T05:11:30;100480.41;;;17.56;100.00
31082;BME280;17737;52.586;13.284;2023-07-31T05:13:58;100482.25;;;17.62;100.00
31082;BME280;17737;52.586;13.284;2023-07-31T05:16:26;100479.75;;;17.61;100.00
31082;BME280;17737;52.586;13.284;2023-07-31T05:18:56;100475.72;;;17.70;100.00
31082;BME280;17737;52.586;13.284;2023-07-31T05:21:24;100472.31;;;17.74;100.00
31082;BME280;17737;52.586;13.284;2023-07-31T05:23:52;100480.09;;;17.71;100.00
31082;BME280;17737;52.586;13.284;2023-07-31T05:26:22;100471.84;;;17.77;100.00
31082;BME280;17737;52.586;13.284;2023-07-31T05:28:50;100475.44;;;17.78;100.00
31082;BME280;17737;52.586;13.284;2023-07-31T05:31:18;100474.00;;;17.75;100.00
31082;BME280;17737;52.586;13.284;2023-07-31T05:33:47;100466.47;;;17.71;100.00
31082;BME280;17737;52.586;13.284;2023-07-31T05:36:16;100472.00;;;17.89;100.00
31082;BME280;17737;52.586;13.284;2023-07-31T05:38:44;100457.91;;;17.92;100.00
31082;BME280;17737;52.586;13.284;2023-07-31T05:41:12;100461.09;;;17.89;100.00
31082;BME280;17737;52.586;13.284;2023-07-31T05:43:42;100461.13;;;18.07;100.00
31082;BME280;17737;52.586;13.284;2023-07-31T05:46:10;100455.59;;;17.96;100.00
31082;BME280;17737;52.586;13.284;2023-07-31T05:48:38;100455.41;;;17.90;100.00
31082;BME280;17737;52.586;13.284;2023-07-31T05:51:06;100450.13;;;17.96;100.00
31082;BME280;17737;52.586;13.284;2023-07-31T05:53:34;100452.47;;;17.92;100.00
31082;BME280;17737;52.586;13.284;2023-07-31T05:56:07;100449.50;;;17.93;100.00
31082;BME280;17737;52.586;13.284;2023-07-31T05:58:35;100452.06;;;17.88;100.00
31082;BME280;17737;52.586;13.284;2023-07-31T06:01:04;100451.69;;;17.85;100.00
31082;BME280;17737;52.586;13.284;2023-07-31T06:03:33;100453.06;;;17.69;100.00
31082;BME280;17737;52.586;13.284;2023-07-31T06:06:01;100452.41;;;17.74;100.00
31082;BME280;17737;52.586;13.284;2023-07-31T06:08:29;100454.25;;;17.80;100.00
31082;BME280;17737;52.586;13.284;2023-07-31T06:10:57;100454.75;;;17.95;100.00
31082;BME280;17737;52.586;13.284;2023-07-31T06:13:25;100452.78;;;18.02;100.00
31082;BME280;17737;52.586;13.284;2023-07-31T06:15:54;100449.50;;;17.93;100.00
31082;BME280;17737;52.586;13.284;2023-07-31T06:18:23;100457.47;;;17.95;100.00
31082;BME280;17737;52.586;13.284;2023-07-31T06:20:51;100456.28;;;17.84;100.00
31082;BME280;17737;52.586;13.284;2023-07-31T06:23:20;100452.97;;;17.82;100.00
31082;BME280;17737;52.586;13.284;2023-07-31T06:25:48;100455.44;;;17.59;100.00
31082;BME280;17737;52.586;13.284;2023-07-31T06:28:16;100458.03;;;17.79;100.00
31082;BME280;17737;52.586;13.284;2023-07-31T06:30:44;100448.72;;;17.86;100.00
31082;BME280;17737;52.586;13.284;2023-07-31T06:33:12;100451.63;;;17.91;100.00
31082;BME280;17737;52.586;13.284;2023-07-31T06:35:42;100453.50;;;18.16;100.00
31082;BME280;17737;52.586;13.284;2023-07-31T06:38:10;100457.47;;;17.95;100.00
31082;BME280;17737;52.586;13.284;2023-07-31T06:40:38;100453.31;;;17.92;100.00
31082;BME280;17737;52.586;13.284;2023-07-31T06:43:06;100459.28;;;18.26;100.00
31082;BME280;17737;52.586;13.284;2023-07-31T06:45:35;100451.38;;;18.18;100.00
31082;BME280;17737;52.586;13.284;2023-07-31T06:48:04;100441.03;;;18.02;100.00
31082;BME280;17737;52.586;13.284;2023-07-31T06:50:33;100445.38;;;18.09;100.00
31082;BME280;17737;52.586;13.284;2023-07-31T06:53:02;100445.78;;;17.63;100.00
31082;BME280;17737;52.586;13.284;2023-07-31T06:55:33;100447.00;;;17.67;100.00
31082;BME280;17737;52.586;13.284;2023-07-31T06:58:01;100446.94;;;17.49;100.00
31082;BME280;17737;52.586;13.284;2023-07-31T07:00:29;100454.34;;;17.67;100.00
31082;BME280;17737;52.586;13.284;2023-07-31T07:02:58;100455.50;;;17.77;100.00
31082;BME280;17737;52.586;13.284;2023-07-31T07:05:26;100440.84;;;17.78;100.00
31082;BME280;17737;52.586;13.284;2023-07-31T07:07:54;100450.41;;;17.87;100.00
31082;BME280;17737;52.586;13.284;2023-07-31T07:10:24;100448.47;;;17.70;100.00
31082;BME280;17737;52.586;13.284;2023-07-31T07:12:52;100450.09;;;17.46;100.00
31082;BME280;17737;52.586;13.284;2023-07-31T07:15:21;100454.00;;;17.57;100.00
31082;BME280;17737;52.586;13.284;2023-07-31T07:17:49;100451.16;;;17.39;100.00
31082;BME280;17737;52.586;13.284;2023-07-31T07:20:17;100449.38;;;17.57;100.00
31082;BME280;17737;52.586;13.284;2023-07-31T07:22:46;100449.56;;;17.62;100.00
31082;BME280;17737;52.586;13.284;2023-07-31T07:25:17;100447.13;;;17.79;100.00
31082;BME280;17737;52.586;13.284;2023-07-31T07:27:47;100452.06;;;17.88;100.00
31082;BME280;17737;52.586;13.284;2023-07-31T07:30:15;100445.22;;;18.04;100.00
31082;BME280;17737;52.586;13.284;2023-07-31T07:32:44;100446.47;;;17.83;100.00
31082;BME280;17737;52.586;13.284;2023-07-31T07:35:12;100440.97;;;18.08;100.00
31082;BME280;17737;52.586;13.284;2023-07-31T07:37:40;100440.78;;;17.85;100.00
31082;BME280;17737;52.586;13.284;2023-07-31T07:40:09;100444.81;;;17.82;100.00
31082;BME280;17737;52.586;13.284;2023-07-31T07:42:37;100438.47;;;17.57;100.00
31082;BME280;17737;52.586;13.284;2023-07-31T07:45:07;100443.13;;;17.50;100.00
31082;BME280;17737;52.586;13.284;2023-07-31T07:47:37;100439.66;;;17.68;100.00
31082;BME280;17737;52.586;13.284;2023-07-31T07:50:06;100435.06;;;17.68;100.00
31082;BME280;17737;52.586;13.284;2023-07-31T07:52:35;100436.44;;;17.53;100.00
31082;BME280;17737;52.586;13.284;2023-07-31T07:55:04;100438.97;;;17.48;100.00
31082;BME280;17737;52.586;13.284;2023-07-31T07:57:32;100437.94;;;17.73;100.00
31082;BME280;17737;52.586;13.284;2023-07-31T07:59:59;100434.50;;;17.84;100.00
31082;BME280;17737;52.586;13.284;2023-07-31T08:02:28;100426.84;;;18.00;100.00
31082;BME280;17737;52.586;13.284;2023-07-31T08:04:57;100430.63;;;18.17;100.00
31082;BME280;17737;52.586;13.284;2023-07-31T08:07:25;100431.38;;;18.24;100.00
31082;BME280;17737;52.586;13.284;2023-07-31T08:09:53;100417.91;;;18.11;100.00
31082;BME280;17737;52.586;13.284;2023-07-31T08:12:21;100410.56;;;18.29;100.00
31082;BME280;17737;52.586;13.284;2023-07-31T08:14:49;100413.97;;;18.25;100.00
31082;BME280;17737;52.586;13.284;2023-07-31T08:17:17;100415.88;;;18.24;100.00
31082;BME280;17737;52.586;13.284;2023-07-31T08:19:47;100420.75;;;17.98;100.00
31082;BME280;17737;52.586;13.284;2023-07-31T08:22:15;100419.31;;;17.95;100.00
31082;BME280;17737;52.586;13.284;2023-07-31T08:24:43;100415.56;;;17.89;100.00
31082;BME280;17737;52.586;13.284;2023-07-31T08:27:12;100414.31;;;18.10;100.00
31082;BME280;17737;52.586;13.284;2023-07-31T08:29:40;100410.09;;;18.14;100.00
31082;BME280;17737;52.586;13.284;2023-07-31T08:32:08;100409.09;;;18.09;100.00
31082;BME280;17737;52.586;13.284;2023-07-31T08:34:36;100410.81;;;18.03;100.00
31082;BME280;17737;52.586;13.284;2023-07-31T08:37:06;100406.28;;;18.40;100.00
31082;BME280;17737;52.586;13.284;2023-07-31T08:39:34;100409.25;;;18.14;100.00
31082;BME280;17737;52.586;13.284;2023-07-31T08:42:02;100407.53;;;18.01;100.00
31082;BME280;17737;52.586;13.284;2023-07-31T08:44:30;100411.75;;;17.97;100.00
31082;BME280;17737;52.586;13.284;2023-07-31T08:47:00;100412.81;;;18.14;100.00
31082;BME280;17737;52.586;13.284;2023-07-31T08:49:29;100406.34;;;18.33;100.00
31082;BME280;17737;52.586;13.284;2023-07-31T08:51:58;100399.53;;;18.60;100.00
31082;BME280;17737;52.586;13.284;2023-07-31T08:54:29;100404.50;;;18.99;100.00
31082;BME280;17737;52.586;13.284;2023-07-31T08:57:00;100400.81;;;19.05;100.00
31082;BME280;17737;52.586;13.284;2023-07-31T08:59:31;100392.59;;;19.24;100.00
31082;BME280;17737;52.586;13.284;2023-07-31T09:02:05;100394.00;;;19.26;100.00
31082;BME280;17737;52.586;13.284;2023-07-31T09:04:35;100383.97;;;18.79;100.00
31082;BME280;17737;52.586;13.284;2023-07-31T09:07:05;100396.94;;;18.47;100.00
31082;BME280;17737;52.586;13.284;2023-07-31T09:09:37;100395.75;;;18.43;100.00
31082;BME280;17737;52.586;13.284;2023-07-31T09:12:06;100396.91;;;18.54;100.00
31082;BME280;17737;52.586;13.284;2023-07-31T09:14:34;100396.66;;;19.03;100.00
31082;BME280;17737;52.586;13.284;2023-07-31T09:17:03;100399.63;;;18.54;100.00
31082;BME280;17737;52.586;13.284;2023-07-31T09:19:33;100400.88;;;18.33;100.00
31082;BME280;17737;52.586;13.284;2023-07-31T09:22:04;100399.72;;;18.23;100.00
31082;BME280;17737;52.586;13.284;2023-07-31T09:24:33;100398.75;;;18.17;100.00
31082;BME280;17737;52.586;13.284;2023-07-31T09:27:05;100396.47;;;18.14;100.00
31082;BME280;17737;52.586;13.284;2023-07-31T09:29:33;100400.75;;;18.04;100.00
31082;BME280;17737;52.586;13.284;2023-07-31T09:32:02;100401.31;;;18.12;100.00
31082;BME280;17737;52.586;13.284;2023-07-31T09:34:37;100411.81;;;17.90;100.00
31082;BME280;17737;52.586;13.284;2023-07-31T09:37:06;100406.13;;;17.92;100.00
31082;BME280;17737;52.586;13.284;2023-07-31T09:39:45;100409.56;;;18.06;100.00
31082;BME280;17737;52.586;13.284;2023-07-31T09:42:24;100408.34;;;18.02;100.00
31082;BME280;17737;52.586;13.284;2023-07-31T09:45:06;100403.97;;;18.19;100.00
31082;BME280;17737;52.586;13.284;2023-07-31T09:47:36;100402.69;;;18.39;100.00
31082;BME280;17737;52.586;13.284;2023-07-31T09:50:07;100398.22;;;18.27;100.00
31082;BME280;17737;52.586;13.284;2023-07-31T09:52:38;100403.88;;;18.50;100.00
31082;BME280;17737;52.586;13.284;2023-07-31T09:55:07;100395.50;;;18.27;100.00
31082;BME280;17737;52.586;13.284;2023-07-31T09:57:40;100396.38;;;18.39;100.00
31082;BME280;17737;52.586;13.284;2023-07-31T10:00:10;100390.13;;;18.74;100.00
31082;BME280;17737;52.586;13.284;2023-07-31T10:02:39;100388.16;;;19.23;100.00
31082;BME280;17737;52.586;13.284;2023-07-31T10:05:08;100386.28;;;19.23;100.00
31082;BME280;17737;52.586;13.284;2023-07-31T10:07:38;100384.06;;;18.72;100.00
31082;BME280;17737;52.586;13.284;2023-07-31T10:10:08;100382.81;;;18.86;100.00
31082;BME280;17737;52.586;13.284;2023-07-31T10:12:38;100388.47;;;18.55;100.00
31082;BME280;17737;52.586;13.284;2023-07-31T10:15:08;100386.94;;;18.59;100.00
31082;BME280;17737;52.586;13.284;2023-07-31T10:17:37;100375.66;;;18.74;100.00
31082;BME280;17737;52.586;13.284;2023-07-31T10:20:07;100379.38;;;18.61;100.00
31082;BME280;17737;52.586;13.284;2023-07-31T10:22:36;100376.88;;;18.60;100.00
31082;BME280;17737;52.586;13.284;2023-07-31T10:25:08;100380.38;;;18.49;100.00
31082;BME280;17737;52.586;13.284;2023-07-31T10:27:38;100375.75;;;18.67;100.00
31082;BME280;17737;52.586;13.284;2023-07-31T10:30:09;100370.28;;;18.67;100.00
31082;BME280;17737;52.586;13.284;2023-07-31T10:32:43;100370.81;;;18.58;100.00
31082;BME280;17737;52.586;13.284;2023-07-31T10:35:14;100368.31;;;18.74;100.00
31082;BME280;17737;52.586;13.284;2023-07-31T10:37:45;100364.44;;;18.64;100.00
31082;BME280;17737;52.586;13.284;2023-07-31T10:40:16;100366.91;;;18.83;100.00
31082;BME280;17737;52.586;13.284;2023-07-31T10:42:48;100356.59;;;18.85;100.00
31082;BME280;17737;52.586;13.284;2023-07-31T10:45:24;100351.22;;;19.08;100.00
31082;BME280;17737;52.586;13.284;2023-07-31T10:47:59;100348.72;;;19.48;100.00
31082;BME280;17737;52.586;13.284;2023-07-31T10:50:29;100349.69;;;19.65;100.00
31082;BME280;17737;52.586;13.284;2023-07-31T10:52:59;100339.09;;;20.27;100.00
31082;BME280;17737;52.586;13.284;2023-07-31T10:55:30;100322.88;;;20.37;100.00
31082;BME280;17737;52.586;13.284;2023-07-31T10:58:07;100320.78;;;20.27;100.00
31082;BME280;17737;52.586;13.284;2023-07-31T11:00:37;100309.09;;;20.71;100.00
31082;BME280;17737;52.586;13.284;2023-07-31T11:03:08;100306.97;;;20.90;100.00
31082;BME280;17737;52.586;13.284;2023-07-31T11:05:44;100306.09;;;20.73;100.00
31082;BME280;17737;52.586;13.284;2023-07-31T11:08:19;100313.00;;;20.75;100.00
31082;BME280;17737;52.586;13.284;2023-07-31T11:10:50;100308.75;;;20.68;100.00
31082;BME280;17737;52.586;13.284;2023-07-31T11:13:39;100309.72;;;20.62;100.00
31082;BME280;17737;52.586;13.284;2023-07-31T11:16:10;100299.66;;;20.79;100.00
31082;BME280;17737;52.586;13.284;2023-07-31T11:18:39;100293.28;;;20.90;100.00
31082;BME280;17737;52.586;13.284;2023-07-31T11:21:11;100287.66;;;20.96;100.00
31082;BME280;17737;52.586;13.284;2023-07-31T11:23:41;100299.06;;;20.49;100.00
31082;BME280;17737;52.586;13.284;2023-07-31T11:26:12;100277.66;;;21.02;100.00
31082;BME280;17737;52.586;13.284;2023-07-31T11:28:43;100284.13;;;21.12;100.00
31082;BME280;17737;52.586;13.284;2023-07-31T11:31:14;100288.69;;;21.07;100.00
31082;BME280;17737;52.586;13.284;2023-07-31T11:33:42;100292.78;;;21.37;100.00
31082;BME280;17737;52.586;13.284;2023-07-31T11:36:14;100290.50;;;21.01;100.00
31082;BME280;17737;52.586;13.284;2023-07-31T11:38:43;100281.97;;;20.86;100.00
31082;BME280;17737;52.586;13.284;2023-07-31T11:41:14;100283.53;;;20.82;100.00
31082;BME280;17737;52.586;13.284;2023-07-31T11:43:45;100288.31;;;20.87;100.00
31082;BME280;17737;52.586;13.284;2023-07-31T11:46:15;100287.97;;;20.83;100.00
31082;BME280;17737;52.586;13.284;2023-07-31T11:48:44;100282.31;;;21.18;100.00
31082;BME280;17737;52.586;13.284;2023-07-31T11:51:13;100283.47;;;21.22;100.00
31082;BME280;17737;52.586;13.284;2023-07-31T11:53:43;100277.19;;;20.93;100.00
31082;BME280;17737;52.586;13.284;2023-07-31T11:56:17;100281.47;;;20.89;100.00
31082;BME280;17737;52.586;13.284;2023-07-31T11:58:50;100279.72;;;20.67;100.00
31082;BME280;17737;52.586;13.284;2023-07-31T12:01:21;100288.41;;;20.92;100.00
31082;BME280;17737;52.586;13.284;2023-07-31T12:03:52;100283.53;;;20.82;100.00
31082;BME280;17737;52.586;13.284;2023-07-31T12:06:20;100280.72;;;20.77;100.00
31082;BME280;17737;52.586;13.284;2023-07-31T12:08:48;100282.69;;;20.65;100.00
31082;BME280;17737;52.586;13.284;2023-07-31T12:11:16;100285.53;;;20.42;100.00
31082;BME280;17737;52.586;13.284;2023-07-31T12:13:45;100294.47;;;20.14;100.00
31082;BME280;17737;52.586;13.284;2023-07-31T12:16:14;100287.97;;;19.92;100.00
31082;BME280;17737;52.586;13.284;2023-07-31T12:18:42;100284.69;;;19.67;100.00
31082;BME280;17737;52.586;13.284;2023-07-31T12:21:10;100285.25;;;19.81;100.00
31082;BME280;17737;52.586;13.284;2023-07-31T12:23:39;100288.72;;;19.76;100.00
31082;BME280;17737;52.586;13.284;2023-07-31T12:26:10;100283.38;;;19.70;100.00
31082;BME280;17737;52.586;13.284;2023-07-31T12:28:41;100286.94;;;19.70;100.00
31082;BME280;17737;52.586;13.284;2023-07-31T12:31:11;100288.00;;;19.46;100.00
31082;BME280;17737;52.586;13.284;2023-07-31T12:33:41;100284.94;;;19.66;100.00
31082;BME280;17737;52.586;13.284;2023-07-31T12:36:11;100274.97;;;20.11;100.00
31082;BME280;17737;52.586;13.284;2023-07-31T12:38:40;100267.00;;;20.21;100.00
31082;BME280;17737;52.586;13.284;2023-07-31T12:41:09;100261.06;;;20.12;100.00